MSSS/SAL METAR and TAF weather

Enter ICAO airport designator
Station Type Date Time Source
MSSS METAR 2020/11/26 23:50 UTC NOAA

MSSS 262350Z 34003KT 9999 FEW040CB 26/22 Q1013 A2993


Station Type Date Time Source
MSSS Decoded METAR 2020/11/26 23:50 UTC NOAA

San Salvador / Ilopango, El Salvador (MSSS) 13-42N 089-07W 621M
Nov 26, 2020 - 06:50 PM EST / 2020.11.26 2350 UTC
Wind: from the NNW (340 degrees) at 3 MPH (3 KT):0
Visibility: greater than 7 mile(s):0
Sky conditions: mostly clear
Weather: Cumulonimbus clouds observed
Temperature: 78 F (26 C)
Dew Point: 71 F (22 C)
Relative Humidity: 78%
Pressure (altimeter): 29.93 in. Hg (1013 hPa)
ob: MSSS 262350Z 34003KT 9999 FEW040CB 26/22 Q1013 A2993
cycle: 0

Station Type Date Time Source
MSSS TAF 2020/11/26 18:32 UTC NOAA

TAF MSSS 261525Z 2618/2718 18012KT 9999 SCT023 FEW033CB TX29/2618Z TN21/2712Z
TEMPO 2623/2702 5000 TSRA
FM270500 35006KT 9999 FEW020
TEMPO 2710/2714 5000 BR

Example: see airport list